Time;durP1;ratioP1;P1;durP2;ratioP2;P2;SDS_P1;SDS_P2;PMS_P1;PMS_P2;Temp;Humidity;BMP_temperature;BMP_pressure;BME280_temperature;BME280_humidity;BME280_pressure;Samples;Min_cycle;Max_cycle;Signal;HPM_P1;HPM_P2
2023/07/16 00:01:35;;;;;;;;;;;26.00;48.60;;;;;;1554865;75;1561;-49
2023/07/16 00:03:37;;;;;;;;;;;26.10;48.60;;;;;;1547852;75;739;-50
2023/07/16 00:05:39;;;;;;;;;;;26.10;48.60;;;;;;1561808;75;1935;-52
2023/07/16 00:07:41;;;;;;;;;;;26.10;48.60;;;;;;1554775;75;709;-51
2023/07/16 00:09:43;;;;;;;;;;;26.10;48.70;;;;;;1551702;75;1166;-52
2023/07/16 00:11:45;;;;;;;;;;;26.00;48.60;;;;;;1557836;75;635;-51
2023/07/16 00:13:47;;;;;;;;;;;26.10;48.60;;;;;;1563925;75;736;-52
2023/07/16 00:15:49;;;;;;;;;;;26.10;48.60;;;;;;1555984;74;1537;-50
2023/07/16 00:17:51;;;;;;;;;;;26.10;48.70;;;;;;1558228;74;711;-49
2023/07/16 00:19:53;;;;;;;;;;;26.00;48.60;;;;;;1558953;74;1172;-52
2023/07/16 00:21:55;;;;;;;;;;;26.10;48.60;;;;;;1557458;74;785;-52
2023/07/16 00:23:57;;;;;;;;;;;26.10;48.70;;;;;;1554182;75;790;-52
2023/07/16 00:25:58;;;;;;;;;;;26.00;48.60;;;;;;1561097;75;1919;-52
2023/07/16 00:28:00;;;;;;;;;;;26.10;48.70;;;;;;1556951;74;621;-52
2023/07/16 00:30:03;;;;;;;;;;;26.10;48.60;;;;;;1552261;75;1531;-51
2023/07/16 00:32:05;;;;;;;;;;;26.00;48.70;;;;;;1556244;75;788;-52
2023/07/16 00:34:07;;;;;;;;;;;26.10;48.70;;;;;;1550322;74;761;-52
2023/07/16 00:36:09;;;;;;;;;;;26.10;48.70;;;;;;1553571;74;745;-51
2023/07/16 00:38:11;;;;;;;;;;;26.10;48.70;;;;;;1550714;75;785;-49
2023/07/16 00:40:12;;;;;;;;;;;26.00;48.70;;;;;;1553737;74;1128;-52
2023/07/16 00:42:14;;;;;;;;;;;26.00;48.60;;;;;;1564283;75;781;-52
2023/07/16 00:44:16;;;;;;;;;;;26.00;48.70;;;;;;1559557;75;1528;-52
2023/07/16 00:46:18;;;;;;;;;;;26.00;48.60;;;;;;1559396;74;1932;-52
2023/07/16 00:48:20;;;;;;;;;;;26.00;48.60;;;;;;1556222;74;725;-52
2023/07/16 00:50:22;;;;;;;;;;;26.10;48.70;;;;;;1562101;74;1187;-51
2023/07/16 00:52:24;;;;;;;;;;;26.00;48.70;;;;;;1553238;76;753;-49
2023/07/16 00:54:26;;;;;;;;;;;26.00;48.70;;;;;;1547998;74;684;-52
2023/07/16 00:56:27;;;;;;;;;;;26.00;48.60;;;;;;1552656;75;732;-52
2023/07/16 00:58:29;;;;;;;;;;;26.00;48.70;;;;;;1560962;75;1543;-50
2023/07/16 01:00:32;;;;;;;;;;;26.00;48.60;;;;;;1561728;74;738;-52
2023/07/16 01:02:34;;;;;;;;;;;26.00;48.70;;;;;;1565530;75;765;-52
2023/07/16 01:04:36;;;;;;;;;;;26.10;48.70;;;;;;1553768;74;683;-52
2023/07/16 01:06:38;;;;;;;;;;;26.00;48.70;;;;;;1551802;74;1922;-52
2023/07/16 01:08:45;;;;;;;;;;;26.00;48.70;;;;;;1555766;74;1137;-52
2023/07/16 01:10:47;;;;;;;;;;;26.00;48.70;;;;;;1552093;75;1882;-52
2023/07/16 01:12:50;;;;;;;;;;;26.00;48.70;;;;;;1528519;76;1585;-52
2023/07/16 01:14:52;;;;;;;;;;;26.00;48.70;;;;;;1536007;76;727;-51
2023/07/16 01:16:58;;;;;;;;;;;26.00;48.70;;;;;;1546805;75;807;-51
2023/07/16 01:18:58;;;;;;;;;;;26.00;48.70;;;;;;1524304;76;1486;-52
2023/07/16 01:21:00;;;;;;;;;;;26.00;48.70;;;;;;1534665;76;722;-51
2023/07/16 01:23:03;;;;;;;;;;;26.00;48.80;;;;;;1540203;76;692;-53
2023/07/16 01:25:25;;;;;;;;;;;26.00;48.70;;;;;;1541524;76;779;-52
2023/07/16 01:27:47;;;;;;;;;;;26.00;48.80;;;;;;1535377;76;1908;-53
2023/07/16 01:29:55;;;;;;;;;;;26.00;48.80;;;;;;1528337;76;1132;-53
2023/07/16 01:31:57;;;;;;;;;;;26.10;48.70;;;;;;1531648;76;789;-53
2023/07/16 01:33:59;;;;;;;;;;;26.00;48.70;;;;;;1544904;76;747;-53
2023/07/16 01:36:00;;;;;;;;;;;26.00;48.80;;;;;;1533502;76;771;-53
2023/07/16 01:38:02;;;;;;;;;;;26.00;48.80;;;;;;1554207;76;772;-53
2023/07/16 01:40:05;;;;;;;;;;;26.00;48.80;;;;;;1537308;76;1552;-53
2023/07/16 01:42:06;;;;;;;;;;;26.00;48.70;;;;;;1533541;76;654;-52
2023/07/16 01:44:08;;;;;;;;;;;26.00;48.70;;;;;;1544626;76;883;-53
2023/07/16 01:46:10;;;;;;;;;;;26.00;48.80;;;;;;1537842;76;1922;-53
2023/07/16 01:48:31;;;;;;;;;;;26.00;48.70;;;;;;1542740;76;795;-52
2023/07/16 01:50:33;;;;;;;;;;;26.00;48.80;;;;;;1534649;76;727;-53
2023/07/16 01:52:35;;;;;;;;;;;26.00;48.70;;;;;;1547224;76;982;-53
2023/07/16 01:54:37;;;;;;;;;;;26.00;48.70;;;;;;1535085;76;1493;-52
2023/07/16 01:56:39;;;;;;;;;;;26.00;48.70;;;;;;1540352;76;777;-52
2023/07/16 01:58:40;;;;;;;;;;;26.00;48.70;;;;;;1534400;76;1116;-52
2023/07/16 02:00:42;;;;;;;;;;;26.00;48.80;;;;;;1539263;76;760;-53
2023/07/16 02:02:44;;;;;;;;;;;26.00;48.80;;;;;;1534423;76;787;-52
2023/07/16 02:04:46;;;;;;;;;;;26.00;48.70;;;;;;1533362;75;731;-52
2023/07/16 02:06:48;;;;;;;;;;;26.00;48.70;;;;;;1547729;76;1942;-53
2023/07/16 02:08:50;;;;;;;;;;;26.00;48.70;;;;;;1538343;76;1437;-53
2023/07/16 02:10:52;;;;;;;;;;;26.00;48.80;;;;;;1539063;76;1110;-53
2023/07/16 02:12:54;;;;;;;;;;;26.00;48.70;;;;;;1557998;75;758;-53
2023/07/16 02:14:55;;;;;;;;;;;26.00;48.80;;;;;;1557252;75;949;-53
2023/07/16 02:16:57;;;;;;;;;;;26.00;48.80;;;;;;1547240;75;801;-53
2023/07/16 02:18:59;;;;;;;;;;;26.00;48.80;;;;;;1547953;75;1187;-53
2023/07/16 02:21:02;;;;;;;;;;;26.00;48.70;;;;;;1552380;75;697;-53
2023/07/16 02:23:04;;;;;;;;;;;26.00;48.80;;;;;;1562833;75;1578;-53
2023/07/16 02:25:06;;;;;;;;;;;26.00;48.80;;;;;;1552028;75;733;-53
2023/07/16 02:27:08;;;;;;;;;;;26.00;48.80;;;;;;1557671;75;1927;-53
2023/07/16 02:29:10;;;;;;;;;;;26.00;48.80;;;;;;1558107;75;1159;-53
2023/07/16 02:31:12;;;;;;;;;;;26.00;48.80;;;;;;1556508;75;734;-53
2023/07/16 02:33:14;;;;;;;;;;;26.00;48.80;;;;;;1564597;75;646;-53
2023/07/16 02:35:15;;;;;;;;;;;26.00;48.80;;;;;;1547082;75;706;-53
2023/07/16 02:37:17;;;;;;;;;;;26.00;48.80;;;;;;1559264;75;1528;-53
2023/07/16 02:39:19;;;;;;;;;;;26.00;48.80;;;;;;1552095;75;1128;-54
2023/07/16 02:41:21;;;;;;;;;;;26.00;48.80;;;;;;1554297;75;789;-52
2023/07/16 02:43:23;;;;;;;;;;;26.00;48.80;;;;;;1559712;75;719;-52
2023/07/16 02:45:25;;;;;;;;;;;26.00;48.80;;;;;;1561994;75;785;-53
2023/07/16 02:47:27;;;;;;;;;;;26.00;48.90;;;;;;1567013;75;1929;-53
2023/07/16 02:49:29;;;;;;;;;;;26.00;48.80;;;;;;1563808;75;1136;-53
2023/07/16 02:51:30;;;;;;;;;;;26.00;48.80;;;;;;1548505;75;1495;-53
2023/07/16 02:53:32;;;;;;;;;;;26.00;48.90;;;;;;1543183;75;802;-53
2023/07/16 02:55:37;;;;;;;;;;;26.00;48.80;;;;;;1553218;75;771;-53
2023/07/16 02:57:39;;;;;;;;;;;26.00;48.80;;;;;;1544731;75;800;-53
2023/07/16 02:59:41;;;;;;;;;;;26.00;48.80;;;;;;1552579;75;1156;-53
2023/07/16 03:01:43;;;;;;;;;;;26.00;48.80;;;;;;1555176;75;759;-53
2023/07/16 03:03:45;;;;;;;;;;;26.00;48.80;;;;;;1556073;75;783;-51
2023/07/16 03:05:47;;;;;;;;;;;26.00;48.80;;;;;;1560443;75;1584;-52
2023/07/16 03:07:48;;;;;;;;;;;26.00;48.80;;;;;;1558581;75;1941;-51
2023/07/16 03:09:50;;;;;;;;;;;26.00;48.80;;;;;;1553657;75;1121;-53
2023/07/16 03:11:52;;;;;;;;;;;26.00;48.90;;;;;;1551039;75;1084;-53
2023/07/16 03:13:54;;;;;;;;;;;26.00;48.90;;;;;;1554505;75;849;-53
2023/07/16 03:15:56;;;;;;;;;;;26.00;48.80;;;;;;1545955;75;748;-48
2023/07/16 03:17:58;;;;;;;;;;;26.00;48.90;;;;;;1551068;75;814;-53
2023/07/16 03:20:00;;;;;;;;;;;26.00;48.80;;;;;;1559167;75;1562;-52
2023/07/16 03:22:02;;;;;;;;;;;26.00;48.80;;;;;;1549323;75;954;-51
2023/07/16 03:24:05;;;;;;;;;;;26.00;48.80;;;;;;1543438;75;793;-50
2023/07/16 03:26:06;;;;;;;;;;;26.00;48.80;;;;;;1545864;75;1925;-52
2023/07/16 03:28:08;;;;;;;;;;;26.00;48.80;;;;;;1557651;75;711;-52
2023/07/16 03:30:10;;;;;;;;;;;26.00;48.80;;;;;;1550415;75;1105;-50
2023/07/16 03:32:12;;;;;;;;;;;26.00;48.80;;;;;;1545904;75;871;-53
2023/07/16 03:34:14;;;;;;;;;;;26.00;48.80;;;;;;1560878;75;1644;-53
2023/07/16 03:36:16;;;;;;;;;;;26.00;48.90;;;;;;1551546;75;718;-51
2023/07/16 03:38:18;;;;;;;;;;;26.00;48.80;;;;;;1560133;75;773;-53
2023/07/16 03:40:21;;;;;;;;;;;26.00;48.80;;;;;;1549208;75;1116;-52
2023/07/16 03:42:23;;;;;;;;;;;25.90;48.30;;;;;;1547143;75;703;-50
2023/07/16 03:44:25;;;;;;;;;;;26.00;48.80;;;;;;1531595;75;797;-53
2023/07/16 03:46:27;;;;;;;;;;;26.00;48.80;;;;;;1549249;75;1939;-53
2023/07/16 03:48:29;;;;;;;;;;;25.90;48.30;;;;;;1561675;75;1734;-52
2023/07/16 03:50:31;;;;;;;;;;;26.00;48.90;;;;;;1549668;75;757;-52
2023/07/16 03:52:33;;;;;;;;;;;25.90;48.30;;;;;;1543280;75;710;-52
2023/07/16 03:54:34;;;;;;;;;;;26.00;48.80;;;;;;1542526;75;706;-50
2023/07/16 03:56:36;;;;;;;;;;;26.00;48.80;;;;;;1556694;75;775;-49
2023/07/16 03:58:38;;;;;;;;;;;26.00;48.80;;;;;;1547473;75;1138;-50
2023/07/16 04:00:41;;;;;;;;;;;26.00;48.80;;;;;;1553291;75;1569;-52
2023/07/16 04:02:43;;;;;;;;;;;26.00;48.80;;;;;;1548089;75;732;-49
2023/07/16 04:04:45;;;;;;;;;;;26.00;48.80;;;;;;1531597;75;673;-52
2023/07/16 04:06:47;;;;;;;;;;;25.90;48.30;;;;;;1551094;75;1946;-53
2023/07/16 04:08:49;;;;;;;;;;;26.00;48.90;;;;;;1549441;75;1167;-52
2023/07/16 04:10:50;;;;;;;;;;;26.00;48.80;;;;;;1539109;75;724;-53
2023/07/16 04:12:52;;;;;;;;;;;26.00;48.80;;;;;;1569063;75;1029;-53
2023/07/16 04:14:56;;;;;;;;;;;26.00;48.80;;;;;;1561937;75;1528;-51
2023/07/16 04:16:58;;;;;;;;;;;26.00;48.80;;;;;;1564552;75;975;-49
2023/07/16 04:19:00;;;;;;;;;;;26.00;48.80;;;;;;1566691;75;1181;-53
2023/07/16 04:21:01;;;;;;;;;;;26.00;48.80;;;;;;1558109;74;751;-53
2023/07/16 04:23:03;;;;;;;;;;;26.00;48.90;;;;;;1563904;75;721;-50
2023/07/16 04:25:05;;;;;;;;;;;26.00;48.80;;;;;;1566510;74;750;-52
2023/07/16 04:27:07;;;;;;;;;;;25.90;48.30;;;;;;1554969;74;1923;-51
2023/07/16 04:29:09;;;;;;;;;;;26.00;48.80;;;;;;1557257;74;1770;-50
2023/07/16 04:31:11;;;;;;;;;;;26.00;48.90;;;;;;1554682;74;716;-53
2023/07/16 04:33:13;;;;;;;;;;;26.00;48.80;;;;;;1572803;75;745;-51
2023/07/16 04:35:15;;;;;;;;;;;26.00;48.80;;;;;;1567193;74;719;-53
2023/07/16 04:37:16;;;;;;;;;;;26.00;48.90;;;;;;1563588;75;749;-53
2023/07/16 04:39:18;;;;;;;;;;;25.90;48.30;;;;;;1561180;75;1137;-53
2023/07/16 04:41:20;;;;;;;;;;;26.00;48.80;;;;;;1568249;75;664;-52
2023/07/16 04:43:22;;;;;;;;;;;26.00;48.80;;;;;;1547283;75;1528;-49
2023/07/16 04:45:24;;;;;;;;;;;25.90;48.30;;;;;;1573115;75;752;-53
2023/07/16 04:47:26;;;;;;;;;;;26.00;48.80;;;;;;1554696;74;1937;-52
2023/07/16 04:49:28;;;;;;;;;;;25.90;48.30;;;;;;1547972;74;1128;-53
2023/07/16 04:51:30;;;;;;;;;;;25.90;48.30;;;;;;1555715;75;779;-52
2023/07/16 04:53:31;;;;;;;;;;;26.00;48.80;;;;;;1566021;75;679;-53
2023/07/16 04:55:35;;;;;;;;;;;26.00;48.80;;;;;;1562337;75;670;-52
2023/07/16 04:57:37;;;;;;;;;;;25.90;48.30;;;;;;1557538;75;1760;-53
2023/07/16 04:59:39;;;;;;;;;;;25.90;48.20;;;;;;1564203;75;1153;-53
2023/07/16 05:01:41;;;;;;;;;;;26.00;48.70;;;;;;1572778;74;742;-51
2023/07/16 05:03:43;;;;;;;;;;;25.90;48.10;;;;;;1556685;74;706;-53
2023/07/16 05:05:45;;;;;;;;;;;26.00;48.70;;;;;;1561138;75;753;-53
2023/07/16 05:07:47;;;;;;;;;;;26.00;48.70;;;;;;1548972;75;1919;-53
2023/07/16 05:09:48;;;;;;;;;;;26.00;48.70;;;;;;1563182;75;1174;-52
2023/07/16 05:11:50;;;;;;;;;;;26.00;48.70;;;;;;1559298;74;1273;-49
2023/07/16 05:13:52;;;;;;;;;;;26.00;48.70;;;;;;1553268;75;1100;-51
2023/07/16 05:15:54;;;;;;;;;;;26.00;48.70;;;;;;1547695;75;749;-53
2023/07/16 05:17:57;;;;;;;;;;;26.00;48.70;;;;;;1538492;75;1072;-48
2023/07/16 05:19:59;;;;;;;;;;;26.00;48.70;;;;;;1549836;75;1177;-50
2023/07/16 05:22:01;;;;;;;;;;;26.00;48.70;;;;;;1550205;75;771;-53
2023/07/16 05:24:03;;;;;;;;;;;26.00;48.70;;;;;;1543531;75;649;-52
2023/07/16 05:26:05;;;;;;;;;;;26.00;48.70;;;;;;1536556;75;1518;-52
2023/07/16 05:28:07;;;;;;;;;;;26.00;48.70;;;;;;1548764;75;1919;-52
2023/07/16 05:30:09;;;;;;;;;;;26.00;48.70;;;;;;1543617;75;1126;-52
2023/07/16 05:32:11;;;;;;;;;;;26.00;48.70;;;;;;1547394;75;746;-53
2023/07/16 05:34:13;;;;;;;;;;;26.00;48.70;;;;;;1555416;75;747;-53
2023/07/16 05:36:15;;;;;;;;;;;26.00;48.70;;;;;;1548606;75;761;-52
2023/07/16 05:38:17;;;;;;;;;;;26.00;48.70;;;;;;1551377;75;823;-53
2023/07/16 05:40:19;;;;;;;;;;;26.00;48.70;;;;;;1556148;75;1548;-51
2023/07/16 05:42:21;;;;;;;;;;;26.00;48.70;;;;;;1558534;75;797;-49
2023/07/16 05:44:23;;;;;;;;;;;26.00;48.70;;;;;;1559034;75;791;-51
2023/07/16 05:46:24;;;;;;;;;;;26.00;48.70;;;;;;1549728;75;622;-53
2023/07/16 05:48:26;;;;;;;;;;;26.00;48.70;;;;;;1562983;75;1927;-53
2023/07/16 05:50:28;;;;;;;;;;;26.00;48.70;;;;;;1556349;75;722;-50
2023/07/16 05:52:31;;;;;;;;;;;26.00;48.70;;;;;;1550036;75;560;-50
2023/07/16 05:54:33;;;;;;;;;;;26.00;48.60;;;;;;1562146;75;1538;-53
2023/07/16 05:56:35;;;;;;;;;;;26.10;48.30;;;;;;1555063;75;765;-53
2023/07/16 05:58:37;;;;;;;;;;;26.20;48.10;;;;;;1557560;74;1111;-52
2023/07/16 06:00:39;;;;;;;;;;;26.20;48.10;;;;;;1552668;75;763;-51
2023/07/16 06:02:41;;;;;;;;;;;26.20;48.10;;;;;;1542587;75;714;-52
2023/07/16 06:04:43;;;;;;;;;;;26.20;48.10;;;;;;1549209;75;736;-50
2023/07/16 06:06:44;;;;;;;;;;;26.20;48.20;;;;;;1555420;75;726;-53
2023/07/16 06:08:46;;;;;;;;;;;26.00;48.30;;;;;;1550515;75;1949;-52
2023/07/16 06:10:48;;;;;;;;;;;26.10;48.30;;;;;;1546080;75;791;-52
2023/07/16 06:12:50;;;;;;;;;;;26.10;48.40;;;;;;1544293;75;710;-52
2023/07/16 06:14:52;;;;;;;;;;;26.10;48.40;;;;;;1551174;75;1093;-48
2023/07/16 06:16:54;;;;;;;;;;;26.00;48.40;;;;;;1562755;75;719;-50
2023/07/16 06:18:56;;;;;;;;;;;26.00;48.40;;;;;;1547433;75;1173;-53
2023/07/16 06:20:58;;;;;;;;;;;26.00;48.50;;;;;;1539917;75;756;-53
2023/07/16 06:22:59;;;;;;;;;;;26.00;48.50;;;;;;1549528;75;1639;-51
2023/07/16 06:25:01;;;;;;;;;;;26.00;48.50;;;;;;1530044;75;795;-52
2023/07/16 06:27:03;;;;;;;;;;;26.00;48.60;;;;;;1551180;75;1931;-52
2023/07/16 06:29:05;;;;;;;;;;;26.00;48.50;;;;;;1550138;75;1157;-53
2023/07/16 06:31:07;;;;;;;;;;;26.00;48.60;;;;;;1549254;75;719;-51
2023/07/16 06:33:09;;;;;;;;;;;26.00;48.50;;;;;;1553491;75;761;-49
2023/07/16 06:35:11;;;;;;;;;;;26.00;48.50;;;;;;1551362;75;746;-51
2023/07/16 06:37:13;;;;;;;;;;;26.10;48.50;;;;;;1549552;75;1653;-52
2023/07/16 06:39:14;;;;;;;;;;;26.00;48.40;;;;;;1546362;75;1093;-51
2023/07/16 06:41:16;;;;;;;;;;;26.00;48.40;;;;;;1555087;75;706;-51
2023/07/16 06:43:18;;;;;;;;;;;26.00;48.50;;;;;;1551595;75;912;-53
2023/07/16 06:45:21;;;;;;;;;;;26.00;48.50;;;;;;1552552;75;544;-51
2023/07/16 06:47:23;;;;;;;;;;;26.00;48.50;;;;;;1550019;75;1943;-52
2023/07/16 06:49:25;;;;;;;;;;;26.00;48.50;;;;;;1550474;75;1573;-53
2023/07/16 06:51:29;;;;;;;;;;;26.00;48.50;;;;;;1547913;75;686;-52
2023/07/16 06:53:30;;;;;;;;;;;26.00;48.60;;;;;;1547406;75;1690;-53
2023/07/16 06:55:32;;;;;;;;;;;26.00;48.60;;;;;;1547128;75;785;-53
2023/07/16 06:57:34;;;;;;;;;;;26.00;48.50;;;;;;1546750;75;757;-53
2023/07/16 06:59:36;;;;;;;;;;;26.00;48.50;;;;;;1552496;75;1152;-52
2023/07/16 07:01:38;;;;;;;;;;;26.00;48.60;;;;;;1537967;75;700;-52
2023/07/16 07:03:40;;;;;;;;;;;26.00;48.60;;;;;;1549065;75;1540;-52
2023/07/16 07:05:42;;;;;;;;;;;26.00;48.50;;;;;;1552166;75;798;-50
2023/07/16 07:07:45;;;;;;;;;;;26.00;48.50;;;;;;1552945;75;1917;-50
2023/07/16 07:09:49;;;;;;;;;;;26.00;48.50;;;;;;1549557;75;1156;-52
2023/07/16 07:11:51;;;;;;;;;;;26.00;48.50;;;;;;1545036;75;728;-53
2023/07/16 07:13:53;;;;;;;;;;;26.00;48.50;;;;;;1562494;75;1059;-53
2023/07/16 07:15:56;;;;;;;;;;;26.00;48.40;;;;;;1541869;74;719;-53
2023/07/16 07:17:58;;;;;;;;;;;26.00;48.40;;;;;;1565330;75;1492;-51
2023/07/16 07:20:00;;;;;;;;;;;26.10;48.40;;;;;;1553996;75;1202;-53
2023/07/16 07:22:02;;;;;;;;;;;26.00;48.40;;;;;;1558525;74;760;-52
2023/07/16 07:24:04;;;;;;;;;;;26.10;48.30;;;;;;1555643;75;728;-52
2023/07/16 07:26:06;;;;;;;;;;;26.10;48.40;;;;;;1562284;74;766;-51
2023/07/16 07:28:08;;;;;;;;;;;26.10;48.40;;;;;;1550645;75;1923;-52
2023/07/16 07:30:10;;;;;;;;;;;26.10;48.40;;;;;;1553245;75;1119;-50
2023/07/16 07:32:12;;;;;;;;;;;26.00;48.40;;;;;;1559521;74;1562;-51
2023/07/16 07:34:13;;;;;;;;;;;26.00;48.40;;;;;;1561696;75;769;-52
2023/07/16 07:36:15;;;;;;;;;;;26.00;48.40;;;;;;1539521;74;723;-50
2023/07/16 07:38:17;;;;;;;;;;;26.10;48.40;;;;;;1554379;75;722;-53
2023/07/16 07:40:19;;;;;;;;;;;26.10;48.30;;;;;;1553255;75;1128;-53
2023/07/16 07:42:21;;;;;;;;;;;26.20;48.30;;;;;;1545107;75;733;-52
2023/07/16 07:44:23;;;;;;;;;;;26.10;48.20;;;;;;1555496;75;808;-51
2023/07/16 07:46:25;;;;;;;;;;;26.20;48.20;;;;;;1560912;75;1531;-49
2023/07/16 07:48:27;;;;;;;;;;;26.20;48.10;;;;;;1557366;75;1954;-53
2023/07/16 07:50:29;;;;;;;;;;;26.20;48.10;;;;;;1556603;75;750;-53
2023/07/16 07:52:30;;;;;;;;;;;26.20;48.10;;;;;;1558539;74;939;-53
2023/07/16 07:54:33;;;;;;;;;;;26.20;48.00;;;;;;1550368;75;784;-53
2023/07/16 07:56:34;;;;;;;;;;;26.10;47.90;;;;;;1556363;75;805;-53
2023/07/16 07:58:36;;;;;;;;;;;26.20;47.90;;;;;;1553926;75;1110;-53
2023/07/16 08:00:39;;;;;;;;;;;26.30;47.80;;;;;;1560494;75;1530;-53
2023/07/16 08:02:40;;;;;;;;;;;26.30;47.80;;;;;;1556534;75;792;-52
2023/07/16 08:04:42;;;;;;;;;;;26.20;47.80;;;;;;1552674;75;772;-50
2023/07/16 08:06:44;;;;;;;;;;;26.20;47.80;;;;;;1556299;74;724;-53
2023/07/16 08:08:46;;;;;;;;;;;26.20;47.80;;;;;;1547536;75;1945;-50
2023/07/16 08:10:48;;;;;;;;;;;26.30;47.80;;;;;;1555929;75;728;-53
2023/07/16 08:12:50;;;;;;;;;;;26.20;47.80;;;;;;1565127;75;737;-53
2023/07/16 08:14:52;;;;;;;;;;;26.20;47.70;;;;;;1552856;75;1545;-51
2023/07/16 08:16:53;;;;;;;;;;;26.20;47.70;;;;;;1550833;75;697;-51
2023/07/16 08:18:55;;;;;;;;;;;26.30;47.60;;;;;;1547927;75;1166;-49
2023/07/16 08:20:57;;;;;;;;;;;26.30;47.60;;;;;;1547750;75;751;-53
2023/07/16 08:22:59;;;;;;;;;;;26.30;47.60;;;;;;1538359;75;789;-52
2023/07/16 08:25:03;;;;;;;;;;;26.30;47.50;;;;;;1539240;75;747;-53
2023/07/16 08:27:05;;;;;;;;;;;26.30;47.40;;;;;;1541396;75;808;-53
2023/07/16 08:29:07;;;;;;;;;;;26.40;47.30;;;;;;1548737;75;1924;-48
2023/07/16 08:31:10;;;;;;;;;;;26.40;47.30;;;;;;1549585;75;706;-52
2023/07/16 08:33:14;;;;;;;;;;;26.50;47.10;;;;;;1553336;75;785;-52
2023/07/16 08:35:16;;;;;;;;;;;26.50;47.10;;;;;;1549118;75;787;-53
2023/07/16 08:37:18;;;;;;;;;;;26.40;47.20;;;;;;1556428;75;752;-53
2023/07/16 08:39:20;;;;;;;;;;;26.40;47.30;;;;;;1550611;75;1144;-53
2023/07/16 08:41:22;;;;;;;;;;;26.30;47.30;;;;;;1546183;75;730;-53
2023/07/16 08:43:24;;;;;;;;;;;26.40;47.30;;;;;;1548798;75;1542;-53
2023/07/16 08:45:26;;;;;;;;;;;26.30;47.40;;;;;;1546797;75;719;-52
2023/07/16 08:47:28;;;;;;;;;;;26.30;47.30;;;;;;1544051;75;786;-49
2023/07/16 08:49:30;;;;;;;;;;;26.30;47.30;;;;;;1554311;75;1935;-53
2023/07/16 08:51:32;;;;;;;;;;;26.40;47.20;;;;;;1553948;75;725;-49
2023/07/16 08:53:34;;;;;;;;;;;26.40;47.20;;;;;;1548886;75;744;-53
2023/07/16 08:55:38;;;;;;;;;;;26.40;47.20;;;;;;1553069;75;716;-54
2023/07/16 08:57:39;;;;;;;;;;;26.30;47.20;;;;;;1550426;75;2023;-52
2023/07/16 08:59:41;;;;;;;;;;;26.40;47.30;;;;;;1549954;75;1143;-51
2023/07/16 09:01:43;;;;;;;;;;;26.40;47.30;;;;;;1542384;75;927;-51
2023/07/16 09:03:46;;;;;;;;;;;26.40;47.30;;;;;;1552302;75;653;-52
2023/07/16 09:05:48;;;;;;;;;;;26.40;47.30;;;;;;1548969;75;780;-52
2023/07/16 09:07:50;;;;;;;;;;;26.40;47.30;;;;;;1554338;75;713;-52
2023/07/16 09:09:57;;;;;;;;;;;26.40;47.30;;;;;;1545125;75;1916;-51
2023/07/16 09:11:59;;;;;;;;;;;26.40;47.20;;;;;;1542552;75;849;-51
2023/07/16 09:14:04;;;;;;;;;;;26.50;47.10;;;;;;1547613;75;754;-53
2023/07/16 09:16:06;;;;;;;;;;;26.50;47.10;;;;;;1541964;75;958;-50
2023/07/16 09:18:10;;;;;;;;;;;26.50;47.00;;;;;;1554547;75;742;-52
2023/07/16 09:20:11;;;;;;;;;;;26.50;47.00;;;;;;1553238;75;1685;-53
2023/07/16 09:22:13;;;;;;;;;;;26.50;46.90;;;;;;1549288;75;730;-53
2023/07/16 09:24:15;;;;;;;;;;;26.50;46.90;;;;;;1531705;75;1535;-50
2023/07/16 09:26:17;;;;;;;;;;;26.50;46.90;;;;;;1554424;75;692;-52
2023/07/16 09:28:19;;;;;;;;;;;26.60;46.90;;;;;;1530169;75;1934;-51
2023/07/16 09:30:21;;;;;;;;;;;26.50;46.80;;;;;;1545888;75;1257;-52
2023/07/16 09:32:23;;;;;;;;;;;26.50;46.80;;;;;;1549048;75;747;-50
2023/07/16 09:34:27;;;;;;;;;;;26.60;46.80;;;;;;1547420;75;779;-52
2023/07/16 09:36:29;;;;;;;;;;;26.60;46.80;;;;;;1547232;75;761;-52
2023/07/16 09:38:30;;;;;;;;;;;26.50;46.80;;;;;;1538015;75;1345;-52
2023/07/16 09:40:32;;;;;;;;;;;26.60;46.80;;;;;;1545321;75;704;-53
2023/07/16 09:42:36;;;;;;;;;;;26.60;46.80;;;;;;1553980;75;701;-52
2023/07/16 09:44:38;;;;;;;;;;;26.60;46.80;;;;;;1549315;75;593;-49
2023/07/16 09:46:40;;;;;;;;;;;26.60;46.80;;;;;;1550704;75;684;-51
2023/07/16 09:48:42;;;;;;;;;;;26.50;46.80;;;;;;1550319;75;1931;-51
2023/07/16 09:50:47;;;;;;;;;;;26.50;46.80;;;;;;1559225;75;747;-52
2023/07/16 09:52:49;;;;;;;;;;;26.50;46.80;;;;;;1546463;75;1517;-52
2023/07/16 09:54:51;;;;;;;;;;;26.60;46.80;;;;;;1541005;75;708;-53
2023/07/16 09:56:54;;;;;;;;;;;26.50;46.80;;;;;;1544457;75;1074;-52
2023/07/16 09:58:56;;;;;;;;;;;26.50;46.80;;;;;;1555841;74;1130;-52
2023/07/16 10:00:57;;;;;;;;;;;26.50;46.80;;;;;;1548468;75;783;-53
2023/07/16 10:02:59;;;;;;;;;;;26.60;46.80;;;;;;1542966;75;783;-53
2023/07/16 10:05:03;;;;;;;;;;;26.50;46.80;;;;;;1542954;75;732;-52
2023/07/16 10:07:05;;;;;;;;;;;26.50;46.70;;;;;;1535871;75;1586;-52
2023/07/16 10:09:07;;;;;;;;;;;26.50;46.80;;;;;;1547309;75;1928;-53
2023/07/16 10:11:10;;;;;;;;;;;26.50;46.80;;;;;;1544157;75;805;-52
2023/07/16 10:13:13;;;;;;;;;;;26.60;46.80;;;;;;1557192;75;1123;-53
2023/07/16 10:15:16;;;;;;;;;;;26.60;46.70;;;;;;1542358;75;761;-52
2023/07/16 10:17:19;;;;;;;;;;;26.60;46.80;;;;;;1551951;75;1870;-52
2023/07/16 10:19:22;;;;;;;;;;;26.60;46.80;;;;;;1552819;75;1169;-52
2023/07/16 10:21:25;;;;;;;;;;;26.60;46.80;;;;;;1560999;75;1854;-53
2023/07/16 10:23:27;;;;;;;;;;;26.50;46.80;;;;;;1558258;75;695;-53
2023/07/16 10:25:29;;;;;;;;;;;26.60;46.80;;;;;;1515113;76;1146;-52
2023/07/16 10:27:32;;;;;;;;;;;26.50;46.80;;;;;;1557019;75;701;-53
2023/07/16 10:29:36;;;;;;;;;;;26.50;46.90;;;;;;1557266;75;1951;-53
2023/07/16 10:31:37;;;;;;;;;;;26.50;46.90;;;;;;1545897;75;1685;-52
2023/07/16 10:33:39;;;;;;;;;;;26.50;46.90;;;;;;1565396;75;750;-52
2023/07/16 10:35:45;;;;;;;;;;;26.50;46.90;;;;;;1549179;74;1266;-52
2023/07/16 10:37:47;;;;;;;;;;;26.50;46.90;;;;;;1559348;75;699;-52
2023/07/16 10:39:52;;;;;;;;;;;26.50;47.00;;;;;;1555576;75;1115;-53
2023/07/16 10:41:54;;;;;;;;;;;26.50;47.10;;;;;;1551537;75;674;-52
2023/07/16 10:43:57;;;;;;;;;;;26.50;47.00;;;;;;1554342;75;877;-52
2023/07/16 10:45:59;;;;;;;;;;;26.50;47.00;;;;;;1550305;75;702;-52
2023/07/16 10:48:01;;;;;;;;;;;26.50;47.00;;;;;;1562228;74;719;-53
2023/07/16 10:50:07;;;;;;;;;;;26.50;47.00;;;;;;1563654;75;1947;-53
2023/07/16 10:52:09;;;;;;;;;;;26.50;47.00;;;;;;1557190;75;704;-53
2023/07/16 10:54:11;;;;;;;;;;;26.50;47.00;;;;;;1554530;75;797;-53
2023/07/16 10:56:13;;;;;;;;;;;26.50;47.00;;;;;;1560560;75;808;-53
2023/07/16 10:58:15;;;;;;;;;;;26.50;47.00;;;;;;1557078;75;712;-53
2023/07/16 11:00:17;;;;;;;;;;;26.50;47.00;;;;;;1561569;75;1134;-52
2023/07/16 11:02:19;;;;;;;;;;;26.50;47.00;;;;;;1558927;75;720;-53
2023/07/16 11:04:20;;;;;;;;;;;26.50;47.00;;;;;;1558035;75;1552;-53
2023/07/16 11:06:22;;;;;;;;;;;26.50;46.90;;;;;;1555246;75;727;-53
2023/07/16 11:08:24;;;;;;;;;;;26.60;47.00;;;;;;1555332;75;1130;-53
2023/07/16 11:10:28;;;;;;;;;;;26.50;47.00;;;;;;1556899;75;1951;-52
2023/07/16 11:12:30;;;;;;;;;;;26.50;47.00;;;;;;1555659;75;862;-51
2023/07/16 11:14:33;;;;;;;;;;;26.60;46.90;;;;;;1562647;75;581;-51
2023/07/16 11:16:36;;;;;;;;;;;26.60;46.90;;;;;;1567327;74;1434;-52
2023/07/16 11:18:38;;;;;;;;;;;26.60;46.90;;;;;;1544739;75;1152;-51
2023/07/16 11:20:40;;;;;;;;;;;26.60;46.90;;;;;;1543464;75;739;-49
2023/07/16 11:22:42;;;;;;;;;;;26.50;46.90;;;;;;1549881;75;766;-52
2023/07/16 11:24:44;;;;;;;;;;;26.50;47.00;;;;;;1546123;75;769;-50
2023/07/16 11:26:52;;;;;;;;;;;26.60;47.00;;;;;;1539227;75;833;-50
2023/07/16 11:28:54;;;;;;;;;;;26.50;47.00;;;;;;1549050;75;1917;-51
2023/07/16 11:30:56;;;;;;;;;;;26.60;47.00;;;;;;1555526;75;1335;-50
2023/07/16 11:32:58;;;;;;;;;;;26.60;47.00;;;;;;1548467;75;755;-53
2023/07/16 11:35:00;;;;;;;;;;;26.50;47.00;;;;;;1549695;75;811;-53
2023/07/16 11:37:11;;;;;;;;;;;26.50;46.90;;;;;;1550690;75;732;-53
2023/07/16 11:39:13;;;;;;;;;;;26.60;47.00;;;;;;1543290;75;1130;-52
2023/07/16 11:41:15;;;;;;;;;;;26.60;46.90;;;;;;1540163;75;635;-51
2023/07/16 11:43:17;;;;;;;;;;;26.60;46.90;;;;;;1551213;75;798;-52
2023/07/16 11:45:20;;;;;;;;;;;26.60;46.90;;;;;;1572269;74;1534;-51
2023/07/16 11:47:22;;;;;;;;;;;26.50;47.00;;;;;;1550975;75;804;-52
2023/07/16 11:49:23;;;;;;;;;;;26.60;47.00;;;;;;1549487;75;1950;-52
2023/07/16 11:51:25;;;;;;;;;;;26.60;46.90;;;;;;1554267;75;745;-52
2023/07/16 11:53:27;;;;;;;;;;;26.60;46.90;;;;;;1548058;75;765;-50
2023/07/16 11:55:29;;;;;;;;;;;26.50;46.90;;;;;;1546177;75;602;-52
2023/07/16 11:57:31;;;;;;;;;;;26.50;47.00;;;;;;1546269;75;675;-48
2023/07/16 11:59:33;;;;;;;;;;;26.60;46.90;;;;;;1547880;75;1536;-53
2023/07/16 12:01:35;;;;;;;;;;;26.60;46.90;;;;;;1553592;75;754;-49
2023/07/16 12:03:37;;;;;;;;;;;26.60;46.90;;;;;;1549268;75;765;-53
2023/07/16 12:05:39;;;;;;;;;;;26.50;47.00;;;;;;1549829;75;603;-53
2023/07/16 12:07:40;;;;;;;;;;;26.50;47.00;;;;;;1549385;75;713;-53
2023/07/16 12:09:42;;;;;;;;;;;26.50;47.00;;;;;;1534117;75;1937;-53